createdAt,value
2018-12-07T00:00:30.888Z,2.10
2018-12-07T00:01:05.927Z,2.10
2018-12-07T00:01:40.779Z,2.10
2018-12-07T00:02:16.819Z,2.10
2018-12-07T00:02:51.580Z,2.10
2018-12-07T00:03:26.379Z,2.10
2018-12-07T00:04:01.179Z,2.10
2018-12-07T00:04:36.200Z,2.10
2018-12-07T00:05:10.899Z,2.10
2018-12-07T00:05:45.659Z,2.10
2018-12-07T00:06:20.440Z,2.10
2018-12-07T00:06:55.222Z,2.10
2018-12-07T00:07:30.120Z,2.10
2018-12-07T00:08:04.859Z,2.10
2018-12-07T00:08:39.580Z,2.10
2018-12-07T00:09:14.366Z,2.10
2018-12-07T00:09:49.259Z,2.10
2018-12-07T00:10:24.299Z,2.10
2018-12-07T00:10:59.199Z,2.10
2018-12-07T00:11:33.921Z,2.10
2018-12-07T00:12:08.699Z,2.10
2018-12-07T00:12:43.499Z,2.10
2018-12-07T00:13:18.919Z,2.10
2018-12-07T00:13:53.703Z,2.10
2018-12-07T00:14:28.420Z,2.10
2018-12-07T00:15:03.340Z,2.10
2018-12-07T00:15:38.279Z,2.10
2018-12-07T00:16:13.120Z,2.10
2018-12-07T00:16:47.939Z,2.10
2018-12-07T00:17:22.699Z,2.10
2018-12-07T00:17:57.479Z,2.10
2018-12-07T00:18:32.421Z,2.10
2018-12-07T00:19:07.179Z,2.10
2018-12-07T00:19:47.852Z,2.10
2018-12-07T00:20:18.898Z,2.10
2018-12-07T00:20:53.659Z,2.10
2018-12-07T00:21:28.319Z,2.10
2018-12-07T00:22:03.039Z,2.20
2018-12-07T00:22:37.838Z,2.20
2018-12-07T00:23:12.579Z,2.20
2018-12-07T00:23:47.379Z,2.20
2018-12-07T00:24:22.118Z,2.20
2018-12-07T00:24:57.019Z,2.20
2018-12-07T00:25:31.839Z,2.20
2018-12-07T00:26:06.538Z,2.20
2018-12-07T00:26:41.280Z,2.20
2018-12-07T00:27:16.079Z,2.20
2018-12-07T00:27:50.841Z,2.20
2018-12-07T00:28:25.639Z,2.20
2018-12-07T00:29:00.479Z,2.20
2018-12-07T00:29:35.199Z,2.20
2018-12-07T00:30:10.059Z,2.20
2018-12-07T00:30:44.819Z,2.20
2018-12-07T00:31:19.639Z,2.20
2018-12-07T00:31:54.847Z,2.20
2018-12-07T00:32:29.578Z,2.20
2018-12-07T00:33:04.727Z,2.20
2018-12-07T00:33:39.679Z,2.20
2018-12-07T00:34:14.719Z,2.20
2018-12-07T00:34:49.499Z,2.30
2018-12-07T00:35:24.239Z,2.30
2018-12-07T00:35:59.319Z,2.30
2018-12-07T00:36:34.166Z,2.20
2018-12-07T00:37:08.859Z,2.30
2018-12-07T00:37:43.739Z,2.30
2018-12-07T00:38:18.541Z,2.30
2018-12-07T00:38:53.339Z,2.30
2018-12-07T00:39:28.179Z,2.30
2018-12-07T00:40:03.159Z,2.20
2018-12-07T00:40:37.999Z,2.30
2018-12-07T00:41:12.851Z,2.30
2018-12-07T00:41:47.719Z,2.20
2018-12-07T00:42:22.579Z,2.20
2018-12-07T00:42:57.378Z,2.30
2018-12-07T00:43:32.139Z,2.20
2018-12-07T00:44:06.899Z,2.30
2018-12-07T00:44:41.758Z,2.30
2018-12-07T00:45:16.541Z,2.30
2018-12-07T00:45:51.467Z,2.30
2018-12-07T00:46:26.319Z,2.30
2018-12-07T00:47:00.979Z,2.30
2018-12-07T00:47:35.759Z,2.30
2018-12-07T00:48:10.720Z,2.30
2018-12-07T00:48:45.422Z,2.30
2018-12-07T00:49:20.201Z,2.30
2018-12-07T00:49:55.038Z,2.30
2018-12-07T00:50:29.758Z,2.30
2018-12-07T00:51:04.599Z,2.30
2018-12-07T00:51:39.238Z,2.30
2018-12-07T00:52:13.999Z,2.30
2018-12-07T00:52:48.701Z,2.30
2018-12-07T00:53:23.659Z,2.30
2018-12-07T00:53:58.480Z,2.30
2018-12-07T00:54:33.398Z,2.30
2018-12-07T00:55:17.619Z,2.30
2018-12-07T00:55:52.359Z,2.30
2018-12-07T00:56:27.159Z,2.30
2018-12-07T00:57:01.979Z,2.30
2018-12-07T00:57:36.599Z,2.30
2018-12-07T00:58:11.307Z,2.30
2018-12-07T00:58:46.058Z,2.30
2018-12-07T00:59:20.819Z,2.30
2018-12-07T00:59:55.539Z,2.30
2018-12-07T01:00:30.419Z,2.30
2018-12-07T01:01:05.329Z,2.30
2018-12-07T01:01:40.259Z,2.20
2018-12-07T01:02:15.147Z,2.20
2018-12-07T01:02:50.079Z,2.20
2018-12-07T01:03:25.179Z,2.20
2018-12-07T01:04:00.239Z,2.20
2018-12-07T01:04:35.198Z,2.20
2018-12-07T01:05:10.119Z,2.20
2018-12-07T01:05:45.118Z,2.20
2018-12-07T01:06:19.959Z,2.20
2018-12-07T01:06:54.719Z,2.20
2018-12-07T01:07:29.499Z,2.20
2018-12-07T01:08:04.401Z,2.20
2018-12-07T01:08:39.200Z,2.20
2018-12-07T01:09:14.199Z,2.20
2018-12-07T01:09:49.161Z,2.20
2018-12-07T01:10:24.002Z,2.10
2018-12-07T01:10:58.879Z,2.20
2018-12-07T01:11:33.899Z,2.20
2018-12-07T01:12:08.819Z,2.20
2018-12-07T01:12:43.499Z,2.20
2018-12-07T01:13:18.239Z,2.10
2018-12-07T01:13:52.999Z,2.20
2018-12-07T01:14:27.759Z,2.20
2018-12-07T01:15:02.599Z,2.20
2018-12-07T01:15:37.359Z,2.20
2018-12-07T01:16:12.318Z,2.20
2018-12-07T01:16:47.179Z,2.20
2018-12-07T01:17:22.079Z,2.20
2018-12-07T01:17:57.107Z,2.20
2018-12-07T01:18:31.959Z,2.20
2018-12-07T01:19:06.779Z,2.20
2018-12-07T01:19:41.543Z,2.20
2018-12-07T01:20:16.618Z,2.20
2018-12-07T01:20:51.579Z,2.20
2018-12-07T01:21:26.539Z,2.20
2018-12-07T01:22:01.540Z,2.20
2018-12-07T01:22:36.519Z,2.20
2018-12-07T01:23:11.399Z,2.20
2018-12-07T01:23:46.339Z,2.20
2018-12-07T01:24:21.098Z,2.20
2018-12-07T01:24:55.819Z,2.20
2018-12-07T01:25:30.699Z,2.20
2018-12-07T01:26:05.460Z,2.20
2018-12-07T01:26:40.559Z,2.20
2018-12-07T01:27:15.279Z,2.20
2018-12-07T01:27:50.259Z,2.20
2018-12-07T01:28:25.168Z,2.20
2018-12-07T01:29:00.159Z,2.20
2018-12-07T01:29:34.959Z,2.20
2018-12-07T01:30:10.019Z,2.20
2018-12-07T01:30:44.861Z,2.20
2018-12-07T01:31:19.847Z,2.20
2018-12-07T01:31:55.099Z,2.30
2018-12-07T01:32:30.039Z,2.30
2018-12-07T01:33:04.859Z,2.30
2018-12-07T01:33:39.580Z,2.20
2018-12-07T01:34:14.339Z,2.30
2018-12-07T01:34:49.139Z,2.30
2018-12-07T01:35:24.238Z,2.30
2018-12-07T01:35:59.239Z,2.30
2018-12-07T01:36:34.221Z,2.30
2018-12-07T01:37:09.138Z,2.30
2018-12-07T01:37:44.019Z,2.30
2018-12-07T01:38:19.055Z,2.30
2018-12-07T01:38:54.099Z,2.30
2018-12-07T01:39:28.978Z,2.30
2018-12-07T01:40:04.235Z,2.30
2018-12-07T01:40:39.139Z,2.30
2018-12-07T01:41:13.999Z,2.30
2018-12-07T01:41:48.959Z,2.30
2018-12-07T01:42:23.999Z,2.30
2018-12-07T01:42:58.927Z,2.30
2018-12-07T01:43:33.807Z,2.30
2018-12-07T01:44:08.640Z,2.30
2018-12-07T01:44:43.339Z,2.30
2018-12-07T01:45:18.199Z,2.30
2018-12-07T01:45:52.959Z,2.30
2018-12-07T01:46:27.659Z,2.30
2018-12-07T01:47:02.422Z,2.30
2018-12-07T01:47:41.519Z,2.30
2018-12-07T01:48:16.440Z,2.40
2018-12-07T01:48:51.359Z,2.30
2018-12-07T01:49:26.287Z,2.30
2018-12-07T01:50:01.139Z,2.40
2018-12-07T01:50:35.978Z,2.30
2018-12-07T01:51:10.922Z,2.40
2018-12-07T01:51:45.939Z,2.40
2018-12-07T01:52:20.679Z,2.30
2018-12-07T01:52:55.507Z,2.40
2018-12-07T01:53:30.379Z,2.30
2018-12-07T01:54:05.306Z,2.30
2018-12-07T01:54:40.199Z,2.40
2018-12-07T01:55:15.098Z,2.30
2018-12-07T01:55:49.758Z,2.30
2018-12-07T01:56:24.782Z,2.40
2018-12-07T01:56:59.498Z,2.40
2018-12-07T01:57:34.298Z,2.40
2018-12-07T01:58:09.486Z,2.40
2018-12-07T01:58:44.378Z,2.40
2018-12-07T01:59:19.418Z,2.40
2018-12-07T01:59:54.280Z,2.40
2018-12-07T02:00:29.219Z,2.40
2018-12-07T02:01:04.099Z,2.40
2018-12-07T02:01:38.918Z,2.40
2018-12-07T02:02:13.619Z,2.40
2018-12-07T02:02:48.438Z,2.40
2018-12-07T02:03:23.378Z,2.40
2018-12-07T02:03:58.167Z,2.40
2018-12-07T02:04:32.940Z,2.40
2018-12-07T02:05:07.966Z,2.40
2018-12-07T02:05:42.921Z,2.40
2018-12-07T02:06:17.538Z,2.40
2018-12-07T02:06:52.278Z,2.40
2018-12-07T02:07:32.538Z,2.40
2018-12-07T02:08:07.422Z,2.40
2018-12-07T02:08:42.320Z,2.40
2018-12-07T02:09:17.239Z,2.40
2018-12-07T02:09:52.098Z,2.40
2018-12-07T02:10:26.798Z,2.40
2018-12-07T02:11:01.478Z,2.40
2018-12-07T02:11:36.578Z,2.40
2018-12-07T02:12:11.578Z,2.40
2018-12-07T02:12:46.318Z,2.40
2018-12-07T02:13:21.078Z,2.40
2018-12-07T02:13:55.898Z,2.40
2018-12-07T02:14:30.799Z,2.40
2018-12-07T02:15:06.280Z,2.40
2018-12-07T02:15:41.226Z,2.40
2018-12-07T02:16:16.101Z,2.40
2018-12-07T02:16:50.918Z,2.40
2018-12-07T02:17:25.966Z,2.40
2018-12-07T02:18:00.979Z,2.40
2018-12-07T02:18:35.997Z,2.40
2018-12-07T02:19:11.057Z,2.40
2018-12-07T02:19:45.817Z,2.40
2018-12-07T02:20:20.677Z,2.40
2018-12-07T02:20:55.677Z,2.40
2018-12-07T02:21:30.617Z,2.40
2018-12-07T02:22:05.400Z,2.40
2018-12-07T02:22:40.339Z,2.50
2018-12-07T02:23:15.258Z,2.50
2018-12-07T02:23:50.217Z,2.40
2018-12-07T02:24:25.399Z,2.50
2018-12-07T02:25:00.345Z,2.50
2018-12-07T02:25:35.337Z,2.50
2018-12-07T02:26:10.198Z,2.50
2018-12-07T02:26:45.078Z,2.50
2018-12-07T02:27:19.957Z,2.40
2018-12-07T02:28:00.577Z,2.50
2018-12-07T02:28:35.377Z,2.50
2018-12-07T02:29:10.278Z,2.50
2018-12-07T02:29:45.258Z,2.50
2018-12-07T02:30:20.226Z,2.40
2018-12-07T02:30:55.067Z,2.50
2018-12-07T02:31:30.018Z,2.50
2018-12-07T02:32:04.938Z,2.50
2018-12-07T02:32:39.799Z,2.50
2018-12-07T02:33:14.758Z,2.50
2018-12-07T02:33:49.660Z,2.50
2018-12-07T02:34:24.418Z,2.50
2018-12-07T02:34:59.378Z,2.50
2018-12-07T02:35:34.237Z,2.50
2018-12-07T02:36:09.178Z,2.50
2018-12-07T02:36:44.238Z,2.50
2018-12-07T02:37:19.098Z,2.50
2018-12-07T02:37:53.957Z,2.50
2018-12-07T02:38:28.977Z,2.50
2018-12-07T02:39:04.898Z,2.50
2018-12-07T02:39:39.943Z,2.50
2018-12-07T02:40:15.168Z,2.50
2018-12-07T02:40:50.158Z,2.50
2018-12-07T02:41:25.277Z,2.50
2018-12-07T02:42:00.586Z,2.50
2018-12-07T02:42:35.538Z,2.50
2018-12-07T02:43:10.338Z,2.50
2018-12-07T02:43:45.318Z,2.50
2018-12-07T02:44:20.022Z,2.50
2018-12-07T02:44:54.960Z,2.50
2018-12-07T02:45:29.877Z,2.50
2018-12-07T02:46:04.851Z,2.50
2018-12-07T02:46:39.859Z,2.50
2018-12-07T02:47:14.759Z,2.50
2018-12-07T02:47:49.917Z,2.50
2018-12-07T02:48:24.798Z,2.50
2018-12-07T02:48:59.858Z,2.50
2018-12-07T02:49:34.858Z,2.60
2018-12-07T02:50:09.738Z,2.60
2018-12-07T02:50:44.737Z,2.60
2018-12-07T02:51:19.540Z,2.60
2018-12-07T02:51:54.558Z,2.60
2018-12-07T02:52:29.637Z,2.60
2018-12-07T02:53:04.746Z,2.60
2018-12-07T02:53:39.699Z,2.60
2018-12-07T02:54:14.638Z,2.60
2018-12-07T02:54:49.537Z,2.60
2018-12-07T02:55:24.517Z,2.60
2018-12-07T02:55:59.437Z,2.60
2018-12-07T02:56:34.278Z,2.60
2018-12-07T02:57:08.957Z,2.60
2018-12-07T02:57:44.139Z,2.60
2018-12-07T02:58:18.999Z,2.60
2018-12-07T02:58:53.797Z,2.60
2018-12-07T02:59:28.697Z,2.60
2018-12-07T03:00:03.597Z,2.60
2018-12-07T03:00:38.684Z,2.60
2018-12-07T03:01:13.798Z,2.60
2018-12-07T03:01:48.658Z,2.60
2018-12-07T03:02:23.607Z,2.60
2018-12-07T03:02:58.397Z,2.60
2018-12-07T03:03:33.224Z,2.60
2018-12-07T03:04:08.199Z,2.60
2018-12-07T03:04:42.877Z,2.60
2018-12-07T03:05:17.885Z,2.60
2018-12-07T03:05:52.729Z,2.60
2018-12-07T03:06:27.698Z,2.70
2018-12-07T03:07:02.516Z,2.70
2018-12-07T03:07:37.576Z,2.60
2018-12-07T03:08:12.317Z,2.70
2018-12-07T03:08:47.057Z,2.70
2018-12-07T03:09:21.778Z,2.70
2018-12-07T03:09:56.657Z,2.70
2018-12-07T03:10:31.678Z,2.60
2018-12-07T03:11:06.677Z,2.70
2018-12-07T03:11:41.598Z,2.70
2018-12-07T03:12:16.418Z,2.70
2018-12-07T03:12:51.137Z,2.70
2018-12-07T03:13:26.199Z,2.70
2018-12-07T03:14:01.081Z,2.70
2018-12-07T03:14:35.957Z,2.70
2018-12-07T03:15:10.806Z,2.70
2018-12-07T03:15:45.537Z,2.70
2018-12-07T03:16:20.337Z,2.70
2018-12-07T03:16:55.565Z,2.70
2018-12-07T03:17:30.655Z,2.70
2018-12-07T03:18:05.678Z,2.70
2018-12-07T03:18:40.677Z,2.70
2018-12-07T03:19:15.565Z,2.70
2018-12-07T03:19:50.418Z,2.70
2018-12-07T03:20:25.277Z,2.80
2018-12-07T03:21:00.406Z,2.70
2018-12-07T03:21:35.278Z,2.70
2018-12-07T03:22:10.237Z,2.70
2018-12-07T03:22:45.338Z,2.80
2018-12-07T03:23:20.417Z,2.80
2018-12-07T03:23:55.217Z,2.70
2018-12-07T03:24:29.917Z,2.70
2018-12-07T03:25:04.937Z,2.80
2018-12-07T03:25:39.865Z,2.80
2018-12-07T03:26:14.597Z,2.70
2018-12-07T03:26:49.498Z,2.80
2018-12-07T03:27:24.439Z,2.80
2018-12-07T03:27:59.498Z,2.80
2018-12-07T03:28:34.477Z,2.80
2018-12-07T03:29:09.258Z,2.80
2018-12-07T03:29:44.036Z,2.80
2018-12-07T03:30:19.178Z,2.80
2018-12-07T03:30:53.878Z,2.80
2018-12-07T03:31:28.820Z,2.80
2018-12-07T03:32:03.661Z,2.80
2018-12-07T03:32:38.818Z,2.80
2018-12-07T03:33:13.658Z,2.80
2018-12-07T03:33:48.539Z,2.80
2018-12-07T03:34:23.517Z,2.80
2018-12-07T03:34:58.405Z,2.80
2018-12-07T03:35:33.218Z,2.80
2018-12-07T03:36:08.338Z,2.80
2018-12-07T03:36:43.117Z,2.80
2018-12-07T03:37:17.917Z,2.80
2018-12-07T03:37:52.736Z,2.80
2018-12-07T03:38:27.937Z,2.80
2018-12-07T03:39:04.360Z,2.80
2018-12-07T03:39:39.185Z,2.90
2018-12-07T03:40:14.060Z,2.90
2018-12-07T03:40:48.917Z,2.90
2018-12-07T03:41:23.778Z,2.90
2018-12-07T03:41:58.537Z,2.90
2018-12-07T03:42:33.365Z,2.90
2018-12-07T03:43:08.338Z,2.90
2018-12-07T03:43:43.197Z,2.90
2018-12-07T03:44:18.020Z,2.90
2018-12-07T03:44:52.977Z,2.90
2018-12-07T03:45:27.757Z,2.90
2018-12-07T03:46:02.617Z,2.90
2018-12-07T03:46:37.558Z,2.90
2018-12-07T03:47:12.520Z,2.90
2018-12-07T03:47:47.398Z,2.90
2018-12-07T03:48:22.297Z,2.90
2018-12-07T03:48:57.118Z,2.90
2018-12-07T03:49:31.985Z,2.90
2018-12-07T03:50:07.003Z,2.90
2018-12-07T03:50:41.879Z,2.90
2018-12-07T03:51:16.736Z,3.00
2018-12-07T03:51:51.677Z,2.90
2018-12-07T03:52:26.417Z,3.00
2018-12-07T03:53:01.277Z,3.00
2018-12-07T03:53:36.277Z,3.00
2018-12-07T03:54:11.019Z,3.00
2018-12-07T03:54:46.037Z,3.00
2018-12-07T03:55:21.257Z,3.00
2018-12-07T03:55:56.298Z,3.00
2018-12-07T03:56:31.037Z,3.00
2018-12-07T03:57:05.818Z,3.00
2018-12-07T03:57:40.973Z,3.00
2018-12-07T03:58:15.959Z,3.00
2018-12-07T03:58:51.177Z,3.10
2018-12-07T03:59:26.118Z,3.00
2018-12-07T04:00:01.038Z,3.10
2018-12-07T04:00:35.922Z,3.10
2018-12-07T04:01:11.117Z,3.10
2018-12-07T04:01:45.903Z,3.10
2018-12-07T04:02:20.917Z,3.10
2018-12-07T04:02:55.837Z,3.10
2018-12-07T04:03:30.682Z,3.00
2018-12-07T04:04:05.558Z,3.00
2018-12-07T04:04:40.338Z,3.10
2018-12-07T04:05:15.398Z,3.10
2018-12-07T04:05:50.399Z,3.10
2018-12-07T04:06:25.277Z,3.10
2018-12-07T04:07:00.258Z,3.10
2018-12-07T04:07:35.277Z,3.10
2018-12-07T04:08:10.240Z,3.10
2018-12-07T04:08:44.977Z,3.10
2018-12-07T04:09:20.101Z,3.10
2018-12-07T04:09:54.898Z,3.10
2018-12-07T04:10:29.937Z,3.10
2018-12-07T04:11:04.718Z,3.10
2018-12-07T04:11:39.697Z,3.20
2018-12-07T04:12:14.518Z,3.10
2018-12-07T04:12:49.545Z,3.10
2018-12-07T04:13:24.617Z,3.10
2018-12-07T04:13:59.577Z,3.20
2018-12-07T04:14:34.597Z,3.20
2018-12-07T04:15:09.616Z,3.20
2018-12-07T04:15:44.845Z,3.20
2018-12-07T04:16:19.645Z,3.20
2018-12-07T04:16:54.590Z,3.20
2018-12-07T04:17:29.468Z,3.20
2018-12-07T04:18:04.586Z,3.20
2018-12-07T04:18:39.374Z,3.20
2018-12-07T04:19:14.547Z,3.20
2018-12-07T04:19:49.587Z,3.20
2018-12-07T04:20:24.506Z,3.20
2018-12-07T04:20:59.335Z,3.20
2018-12-07T04:21:34.454Z,3.20
2018-12-07T04:22:09.634Z,3.20
2018-12-07T04:22:44.654Z,3.20
2018-12-07T04:23:19.574Z,3.20
2018-12-07T04:23:54.507Z,3.30
2018-12-07T04:24:29.346Z,3.30
2018-12-07T04:25:04.408Z,3.20
2018-12-07T04:25:39.355Z,3.20
2018-12-07T04:26:14.557Z,3.30
2018-12-07T04:26:49.434Z,3.30
2018-12-07T04:27:24.383Z,3.30
2018-12-07T04:27:59.566Z,3.30
2018-12-07T04:28:36.160Z,3.30
2018-12-07T04:29:11.247Z,3.30
2018-12-07T04:29:46.215Z,3.30
2018-12-07T04:30:27.468Z,3.30
2018-12-07T04:31:02.349Z,3.30
2018-12-07T04:31:37.147Z,3.30
2018-12-07T04:32:12.009Z,3.30
2018-12-07T04:32:47.270Z,3.40
2018-12-07T04:33:22.228Z,3.40
2018-12-07T04:33:57.169Z,3.30
2018-12-07T04:34:32.046Z,3.40
2018-12-07T04:35:07.114Z,3.30
2018-12-07T04:35:42.034Z,3.40
2018-12-07T04:36:16.933Z,3.40
2018-12-07T04:36:51.833Z,3.40
2018-12-07T04:37:26.553Z,3.40
2018-12-07T04:38:01.378Z,3.40
2018-12-07T04:38:36.415Z,3.40
2018-12-07T04:39:11.313Z,3.40
2018-12-07T04:39:46.192Z,3.40
2018-12-07T04:40:21.102Z,3.40
2018-12-07T04:40:56.255Z,3.40
2018-12-07T04:41:31.012Z,3.40
2018-12-07T04:42:05.773Z,3.40
2018-12-07T04:42:40.653Z,3.40
2018-12-07T04:43:15.473Z,3.50
2018-12-07T04:43:50.319Z,3.40
2018-12-07T04:44:25.093Z,3.50
2018-12-07T04:44:59.932Z,3.50
2018-12-07T04:45:35.395Z,3.40
2018-12-07T04:46:10.477Z,3.50
2018-12-07T04:46:45.354Z,3.50
2018-12-07T04:47:20.134Z,3.50
2018-12-07T04:47:54.973Z,3.50
2018-12-07T04:48:29.794Z,3.50
2018-12-07T04:49:04.733Z,3.50
2018-12-07T04:49:39.454Z,3.50
2018-12-07T04:50:14.453Z,3.50
2018-12-07T04:50:49.233Z,3.50
2018-12-07T04:51:24.177Z,3.50
2018-12-07T04:51:58.893Z,3.50
2018-12-07T04:52:33.641Z,3.50
2018-12-07T04:53:08.453Z,3.50
2018-12-07T04:53:43.214Z,3.50
2018-12-07T04:54:18.113Z,3.50
2018-12-07T04:54:52.893Z,3.50
2018-12-07T04:55:27.713Z,3.50
2018-12-07T04:56:02.612Z,3.50
2018-12-07T04:56:37.353Z,3.50
2018-12-07T04:57:12.178Z,3.50
2018-12-07T04:57:46.812Z,3.40
2018-12-07T04:58:21.620Z,3.50
2018-12-07T04:58:56.434Z,3.50
2018-12-07T04:59:31.672Z,3.50
2018-12-07T05:00:08.093Z,3.50
2018-12-07T05:00:42.973Z,3.50
2018-12-07T05:01:17.773Z,3.50
2018-12-07T05:01:52.694Z,3.50
2018-12-07T05:02:27.826Z,3.40
2018-12-07T05:03:02.678Z,3.50
2018-12-07T05:03:37.553Z,3.50
2018-12-07T05:04:12.333Z,3.50
2018-12-07T05:04:47.221Z,3.50
2018-12-07T05:05:22.334Z,3.40
2018-12-07T05:05:57.173Z,3.40
2018-12-07T05:06:32.073Z,3.40
2018-12-07T05:07:07.193Z,3.50
2018-12-07T05:07:42.038Z,3.50
2018-12-07T05:08:16.913Z,3.50
2018-12-07T05:08:51.672Z,3.50
2018-12-07T05:09:26.665Z,3.50
2018-12-07T05:10:01.421Z,3.50
2018-12-07T05:10:36.153Z,3.50
2018-12-07T05:11:10.873Z,3.50
2018-12-07T05:11:45.733Z,3.50
2018-12-07T05:12:20.893Z,3.50
2018-12-07T05:12:55.843Z,3.50
2018-12-07T05:13:30.845Z,3.50
2018-12-07T05:14:05.905Z,3.50
2018-12-07T05:14:40.824Z,3.50
2018-12-07T05:15:17.183Z,3.50
2018-12-07T05:15:51.959Z,3.50
2018-12-07T05:16:26.739Z,3.50
2018-12-07T05:17:01.771Z,3.50
2018-12-07T05:17:36.651Z,3.50
2018-12-07T05:18:11.383Z,3.50
2018-12-07T05:18:46.117Z,3.50
2018-12-07T05:19:20.985Z,3.50
2018-12-07T05:19:55.856Z,3.50
2018-12-07T05:20:30.677Z,3.50
2018-12-07T05:21:05.538Z,3.50
2018-12-07T05:21:40.437Z,3.50
2018-12-07T05:22:15.677Z,3.50
2018-12-07T05:22:50.666Z,3.50
2018-12-07T05:23:25.425Z,3.50
2018-12-07T05:24:00.278Z,3.50
2018-12-07T05:24:35.138Z,3.50
2018-12-07T05:25:09.938Z,3.50
2018-12-07T05:25:45.298Z,3.50
2018-12-07T05:26:20.433Z,3.50
2018-12-07T05:26:55.391Z,3.50
2018-12-07T05:27:30.353Z,3.50
2018-12-07T05:28:05.152Z,3.50
2018-12-07T05:28:40.574Z,3.50
2018-12-07T05:29:15.353Z,3.50
2018-12-07T05:29:50.593Z,3.60
2018-12-07T05:30:27.588Z,3.60
2018-12-07T05:31:02.357Z,3.60
2018-12-07T05:31:37.292Z,3.50
2018-12-07T05:32:12.275Z,3.60
2018-12-07T05:32:47.352Z,3.60
2018-12-07T05:33:22.172Z,3.60
2018-12-07T05:33:57.593Z,3.60
2018-12-07T05:34:32.555Z,3.60
2018-12-07T05:35:07.592Z,3.60
2018-12-07T05:35:42.648Z,3.60
2018-12-07T05:36:17.390Z,3.60
2018-12-07T05:36:52.432Z,3.60
2018-12-07T05:37:27.089Z,3.60
2018-12-07T05:38:01.850Z,3.60
2018-12-07T05:38:36.789Z,3.60
2018-12-07T05:39:11.736Z,3.60
2018-12-07T05:39:46.612Z,3.60
2018-12-07T05:40:21.449Z,3.60
2018-12-07T05:40:56.377Z,3.60
2018-12-07T05:41:31.189Z,3.60
2018-12-07T05:42:05.949Z,3.60
2018-12-07T05:42:40.989Z,3.60
2018-12-07T05:43:16.349Z,3.60
2018-12-07T05:43:57.603Z,3.60
2018-12-07T05:44:32.531Z,3.60
2018-12-07T05:45:07.629Z,3.60
2018-12-07T05:45:42.350Z,3.70
2018-12-07T05:46:17.389Z,3.60
2018-12-07T05:46:52.309Z,3.60
2018-12-07T05:47:27.292Z,3.70
2018-12-07T05:48:02.223Z,3.60
2018-12-07T05:48:37.049Z,3.70
2018-12-07T05:49:12.069Z,3.70
2018-12-07T05:49:46.829Z,3.70
2018-12-07T05:50:21.790Z,3.70
2018-12-07T05:50:56.650Z,3.70
2018-12-07T05:51:31.449Z,3.70
2018-12-07T05:52:06.352Z,3.70
2018-12-07T05:52:40.989Z,3.70
2018-12-07T05:53:15.790Z,3.70
2018-12-07T05:53:50.589Z,3.70
2018-12-07T05:54:25.490Z,3.70
2018-12-07T05:55:00.189Z,3.70
2018-12-07T05:55:35.031Z,3.70
2018-12-07T05:56:09.848Z,3.80
2018-12-07T05:56:44.690Z,3.70
2018-12-07T05:57:19.828Z,3.80
2018-12-07T05:57:54.649Z,3.80
2018-12-07T05:58:29.429Z,3.80
2018-12-07T05:59:04.409Z,3.80
2018-12-07T05:59:39.289Z,3.80
2018-12-07T06:00:14.091Z,3.70
2018-12-07T06:00:48.877Z,3.70
2018-12-07T06:01:23.688Z,3.80
2018-12-07T06:01:58.773Z,3.80
2018-12-07T06:02:33.629Z,3.80
2018-12-07T06:03:08.471Z,3.80
2018-12-07T06:03:43.349Z,3.80
2018-12-07T06:04:18.169Z,3.80
2018-12-07T06:04:52.996Z,3.80
2018-12-07T06:05:27.729Z,3.80
2018-12-07T06:06:02.668Z,3.80
2018-12-07T06:06:37.369Z,3.80
2018-12-07T06:07:12.089Z,3.80
2018-12-07T06:07:47.117Z,3.80
2018-12-07T06:08:21.948Z,3.80
2018-12-07T06:08:56.729Z,3.80
2018-12-07T06:09:31.548Z,3.80
2018-12-07T06:10:06.648Z,3.80
2018-12-07T06:10:41.448Z,3.90
2018-12-07T06:11:16.229Z,3.80
2018-12-07T06:11:50.931Z,3.90
2018-12-07T06:12:26.049Z,3.90
2018-12-07T06:13:00.693Z,3.90
2018-12-07T06:13:35.208Z,3.90
2018-12-07T06:14:10.108Z,3.90
2018-12-07T06:14:45.009Z,3.90
2018-12-07T06:15:20.028Z,3.90
2018-12-07T06:15:54.849Z,3.90
2018-12-07T06:16:29.749Z,3.90
2018-12-07T06:17:04.708Z,3.90
2018-12-07T06:17:39.469Z,3.90
2018-12-07T06:18:14.248Z,3.90
2018-12-07T06:18:49.068Z,3.90
2018-12-07T06:19:23.848Z,3.90
2018-12-07T06:19:58.899Z,3.90
2018-12-07T06:20:33.789Z,3.90
2018-12-07T06:21:08.588Z,3.90
2018-12-07T06:21:43.448Z,3.90
2018-12-07T06:22:18.349Z,3.90
2018-12-07T06:22:53.348Z,3.90
2018-12-07T06:23:28.109Z,3.90
2018-12-07T06:24:02.987Z,3.90
2018-12-07T06:24:38.008Z,4.00
2018-12-07T06:25:12.851Z,4.00
2018-12-07T06:25:47.688Z,4.00
2018-12-07T06:26:22.668Z,3.90
2018-12-07T06:26:57.680Z,4.00
2018-12-07T06:27:32.491Z,4.00
2018-12-07T06:28:07.309Z,4.00
2018-12-07T06:28:42.168Z,4.00
2018-12-07T06:29:17.048Z,4.00
2018-12-07T06:29:52.068Z,4.00
2018-12-07T06:30:26.948Z,4.00
2018-12-07T06:31:01.808Z,4.00
2018-12-07T06:31:36.748Z,4.00
2018-12-07T06:32:11.693Z,4.00
2018-12-07T06:32:46.608Z,4.00
2018-12-07T06:33:21.367Z,4.00
2018-12-07T06:33:56.252Z,4.00
2018-12-07T06:34:30.968Z,4.00
2018-12-07T06:35:06.030Z,4.00
2018-12-07T06:35:40.767Z,4.00
2018-12-07T06:36:15.647Z,4.00
2018-12-07T06:36:50.508Z,4.00
2018-12-07T06:37:25.408Z,4.00
2018-12-07T06:38:00.208Z,4.00
2018-12-07T06:38:35.107Z,4.00
2018-12-07T06:39:11.288Z,4.00
2018-12-07T06:39:46.230Z,4.00
2018-12-07T06:40:21.107Z,4.00
2018-12-07T06:40:55.968Z,4.00
2018-12-07T06:41:31.048Z,4.00
2018-12-07T06:42:05.847Z,4.00
2018-12-07T06:42:40.627Z,4.00
2018-12-07T06:43:15.527Z,4.00
2018-12-07T06:43:50.267Z,4.00
2018-12-07T06:44:25.068Z,4.00
2018-12-07T06:44:59.989Z,4.00
2018-12-07T06:45:35.311Z,4.10
2018-12-07T06:46:10.187Z,4.10
2018-12-07T06:46:44.988Z,4.00
2018-12-07T06:47:19.687Z,4.10
2018-12-07T06:47:54.609Z,4.10
2018-12-07T06:48:29.567Z,4.10
2018-12-07T06:49:12.707Z,4.10
2018-12-07T06:49:47.569Z,4.10
2018-12-07T06:50:22.407Z,4.10
2018-12-07T06:50:57.368Z,4.10
2018-12-07T06:51:32.248Z,4.10
2018-12-07T06:52:07.152Z,4.10
2018-12-07T06:52:41.907Z,4.10
2018-12-07T06:53:16.687Z,4.10
2018-12-07T06:53:51.607Z,4.10
2018-12-07T06:54:26.507Z,4.10
2018-12-07T06:55:01.268Z,4.10
2018-12-07T06:55:36.510Z,4.10
2018-12-07T06:56:11.548Z,4.10
2018-12-07T06:56:46.387Z,4.10
2018-12-07T06:57:21.408Z,4.10
2018-12-07T06:57:56.308Z,4.10
2018-12-07T06:58:31.240Z,4.10
2018-12-07T06:59:06.108Z,4.10
2018-12-07T06:59:40.808Z,4.10
2018-12-07T07:00:15.609Z,4.10
2018-12-07T07:00:50.567Z,4.10
2018-12-07T07:01:25.368Z,4.10
2018-12-07T07:02:00.147Z,4.10
2018-12-07T07:02:34.948Z,4.10
2018-12-07T07:03:09.787Z,4.10
2018-12-07T07:03:44.569Z,4.10
2018-12-07T07:04:19.447Z,4.10
2018-12-07T07:04:54.268Z,4.10
2018-12-07T07:05:29.068Z,4.10
2018-12-07T07:06:04.067Z,4.20
2018-12-07T07:06:38.928Z,4.20
2018-12-07T07:07:13.784Z,4.20
2018-12-07T07:07:48.748Z,4.20
2018-12-07T07:08:23.608Z,4.20
2018-12-07T07:08:58.470Z,4.20
2018-12-07T07:09:33.487Z,4.20
2018-12-07T07:10:09.147Z,4.20
2018-12-07T07:10:43.969Z,4.20
2018-12-07T07:11:18.867Z,4.20
2018-12-07T07:11:53.768Z,4.20
2018-12-07T07:12:29.264Z,4.20
2018-12-07T07:13:04.390Z,4.20
2018-12-07T07:13:39.328Z,4.20
2018-12-07T07:14:14.307Z,4.20
2018-12-07T07:14:49.187Z,4.20
2018-12-07T07:15:23.988Z,4.20
2018-12-07T07:15:58.827Z,4.30
2018-12-07T07:16:33.669Z,4.30
2018-12-07T07:17:08.547Z,4.30
2018-12-07T07:17:43.287Z,4.30
2018-12-07T07:18:18.208Z,4.30
2018-12-07T07:18:53.108Z,4.30
2018-12-07T07:19:28.047Z,4.30
2018-12-07T07:20:03.048Z,4.30
2018-12-07T07:20:37.987Z,4.30
2018-12-07T07:21:12.908Z,4.30
2018-12-07T07:21:47.688Z,4.30
2018-12-07T07:22:22.507Z,4.30
2018-12-07T07:22:57.288Z,4.30
2018-12-07T07:23:32.348Z,4.40
2018-12-07T07:24:07.267Z,4.40
2018-12-07T07:24:41.937Z,4.40
2018-12-07T07:25:16.787Z,4.40
2018-12-07T07:25:51.567Z,4.40
2018-12-07T07:26:26.427Z,4.40
2018-12-07T07:27:07.507Z,4.40
2018-12-07T07:27:42.210Z,4.40
2018-12-07T07:28:17.127Z,4.40
2018-12-07T07:28:52.287Z,4.40
2018-12-07T07:29:27.167Z,4.40
2018-12-07T07:30:01.987Z,4.40
2018-12-07T07:30:36.930Z,4.50
2018-12-07T07:31:11.848Z,4.40
2018-12-07T07:31:46.908Z,4.50
2018-12-07T07:32:21.687Z,4.50
2018-12-07T07:32:56.548Z,4.50
2018-12-07T07:33:31.388Z,4.50
2018-12-07T07:34:06.531Z,4.50
2018-12-07T07:34:41.415Z,4.50
2018-12-07T07:35:16.327Z,4.50
2018-12-07T07:35:51.207Z,4.50
2018-12-07T07:36:26.051Z,4.50
2018-12-07T07:37:00.867Z,4.50
2018-12-07T07:37:35.635Z,4.50
2018-12-07T07:38:10.508Z,4.50
2018-12-07T07:38:45.467Z,4.50
2018-12-07T07:39:20.187Z,4.60
2018-12-07T07:39:54.971Z,4.60
2018-12-07T07:40:29.907Z,4.60
2018-12-07T07:41:04.926Z,4.60
2018-12-07T07:41:39.950Z,4.60
2018-12-07T07:42:14.967Z,4.60
2018-12-07T07:42:49.867Z,4.60
2018-12-07T07:43:24.647Z,4.60
2018-12-07T07:43:59.577Z,4.60
2018-12-07T07:44:34.468Z,4.60
2018-12-07T07:45:09.407Z,4.60
2018-12-07T07:45:44.275Z,4.60